sensor_id;sensor_type;location;lat;lon;timestamp;P1;durP1;ratioP1;P2;durP2;ratioP2
65172;SDS011;69059;52.218;5.172;2023-06-22T00:00:53;6.55;;;4.40;;
65172;SDS011;69059;52.218;5.172;2023-06-22T00:03:21;5.80;;;4.55;;
65172;SDS011;69059;52.218;5.172;2023-06-22T00:05:51;5.40;;;4.35;;
65172;SDS011;69059;52.218;5.172;2023-06-22T00:10:47;6.85;;;5.15;;
65172;SDS011;69059;52.218;5.172;2023-06-22T00:13:15;6.35;;;5.30;;
65172;SDS011;69059;52.218;5.172;2023-06-22T00:15:44;7.38;;;5.25;;
65172;SDS011;69059;52.218;5.172;2023-06-22T00:18:13;8.40;;;6.40;;
65172;SDS011;69059;52.218;5.172;2023-06-22T00:20:41;7.93;;;6.15;;
65172;SDS011;69059;52.218;5.172;2023-06-22T00:23:11;7.32;;;6.10;;
65172;SDS011;69059;52.218;5.172;2023-06-22T00:25:41;7.10;;;5.15;;
65172;SDS011;69059;52.218;5.172;2023-06-22T00:28:09;9.77;;;6.65;;
65172;SDS011;69059;52.218;5.172;2023-06-22T00:30:37;8.70;;;6.15;;
65172;SDS011;69059;52.218;5.172;2023-06-22T00:33:04;8.15;;;6.50;;
65172;SDS011;69059;52.218;5.172;2023-06-22T00:35:35;9.27;;;6.38;;
65172;SDS011;69059;52.218;5.172;2023-06-22T00:38:02;6.82;;;5.65;;
65172;SDS011;69059;52.218;5.172;2023-06-22T00:45:27;8.20;;;6.40;;
65172;SDS011;69059;52.218;5.172;2023-06-22T00:47:55;9.40;;;7.20;;
65172;SDS011;69059;52.218;5.172;2023-06-22T00:50:25;7.95;;;7.07;;
65172;SDS011;69059;52.218;5.172;2023-06-22T00:52:57;9.52;;;7.38;;
65172;SDS011;69059;52.218;5.172;2023-06-22T00:55:27;8.68;;;6.90;;
65172;SDS011;69059;52.218;5.172;2023-06-22T00:57:55;9.27;;;7.60;;
65172;SDS011;69059;52.218;5.172;2023-06-22T01:00:23;10.30;;;7.55;;
65172;SDS011;69059;52.218;5.172;2023-06-22T01:02:52;9.98;;;6.90;;
65172;SDS011;69059;52.218;5.172;2023-06-22T01:05:21;10.80;;;8.43;;
65172;SDS011;69059;52.218;5.172;2023-06-22T01:07:53;10.32;;;7.80;;
65172;SDS011;69059;52.218;5.172;2023-06-22T01:10:32;12.85;;;8.30;;
65172;SDS011;69059;52.218;5.172;2023-06-22T01:13:07;11.90;;;8.48;;
65172;SDS011;69059;52.218;5.172;2023-06-22T01:15:44;11.48;;;8.55;;
65172;SDS011;69059;52.218;5.172;2023-06-22T01:18:17;9.98;;;8.75;;
65172;SDS011;69059;52.218;5.172;2023-06-22T01:20:46;9.93;;;7.38;;
65172;SDS011;69059;52.218;5.172;2023-06-22T01:23:20;11.18;;;9.20;;
65172;SDS011;69059;52.218;5.172;2023-06-22T01:25:57;9.65;;;8.45;;
65172;SDS011;69059;52.218;5.172;2023-06-22T01:28:39;9.77;;;8.77;;
65172;SDS011;69059;52.218;5.172;2023-06-22T01:31:10;11.98;;;9.52;;
65172;SDS011;69059;52.218;5.172;2023-06-22T01:33:42;10.70;;;8.88;;
65172;SDS011;69059;52.218;5.172;2023-06-22T01:36:11;12.07;;;9.60;;
65172;SDS011;69059;52.218;5.172;2023-06-22T01:38:41;11.70;;;9.80;;
65172;SDS011;69059;52.218;5.172;2023-06-22T01:41:10;16.95;;;10.38;;
65172;SDS011;69059;52.218;5.172;2023-06-22T01:43:40;12.98;;;9.73;;
65172;SDS011;69059;52.218;5.172;2023-06-22T01:46:09;10.32;;;9.18;;
65172;SDS011;69059;52.218;5.172;2023-06-22T01:48:39;13.10;;;9.20;;
65172;SDS011;69059;52.218;5.172;2023-06-22T01:53:34;11.07;;;9.52;;
65172;SDS011;69059;52.218;5.172;2023-06-22T01:56:02;10.80;;;9.05;;
65172;SDS011;69059;52.218;5.172;2023-06-22T01:58:31;11.77;;;9.30;;
65172;SDS011;69059;52.218;5.172;2023-06-22T02:01:05;12.60;;;10.27;;
65172;SDS011;69059;52.218;5.172;2023-06-22T02:03:46;11.55;;;9.45;;
65172;SDS011;69059;52.218;5.172;2023-06-22T02:06:21;12.33;;;10.20;;
65172;SDS011;69059;52.218;5.172;2023-06-22T02:08:53;10.77;;;9.48;;
65172;SDS011;69059;52.218;5.172;2023-06-22T02:11:26;13.43;;;11.00;;
65172;SDS011;69059;52.218;5.172;2023-06-22T02:13:56;12.45;;;10.45;;
65172;SDS011;69059;52.218;5.172;2023-06-22T02:16:26;12.95;;;10.45;;
65172;SDS011;69059;52.218;5.172;2023-06-22T02:18:56;10.97;;;9.73;;
65172;SDS011;69059;52.218;5.172;2023-06-22T02:21:29;12.83;;;10.60;;
65172;SDS011;69059;52.218;5.172;2023-06-22T02:23:57;13.02;;;11.10;;
65172;SDS011;69059;52.218;5.172;2023-06-22T02:26:25;13.50;;;10.50;;
65172;SDS011;69059;52.218;5.172;2023-06-22T02:28:54;11.77;;;10.30;;
65172;SDS011;69059;52.218;5.172;2023-06-22T02:31:22;12.80;;;10.13;;
65172;SDS011;69059;52.218;5.172;2023-06-22T02:33:59;11.45;;;9.90;;
65172;SDS011;69059;52.218;5.172;2023-06-22T02:36:27;13.03;;;10.60;;
65172;SDS011;69059;52.218;5.172;2023-06-22T02:38:57;14.30;;;11.50;;
65172;SDS011;69059;52.218;5.172;2023-06-22T02:41:27;12.97;;;10.80;;
65172;SDS011;69059;52.218;5.172;2023-06-22T02:43:55;11.98;;;10.40;;
65172;SDS011;69059;52.218;5.172;2023-06-22T02:46:23;16.70;;;11.52;;
65172;SDS011;69059;52.218;5.172;2023-06-22T02:48:50;14.10;;;10.65;;
65172;SDS011;69059;52.218;5.172;2023-06-22T02:51:20;13.55;;;10.77;;
65172;SDS011;69059;52.218;5.172;2023-06-22T02:53:47;14.80;;;10.70;;
65172;SDS011;69059;52.218;5.172;2023-06-22T02:56:18;16.23;;;11.20;;
65172;SDS011;69059;52.218;5.172;2023-06-22T02:58:51;14.77;;;11.40;;
65172;SDS011;69059;52.218;5.172;2023-06-22T03:01:18;14.75;;;10.38;;
65172;SDS011;69059;52.218;5.172;2023-06-22T03:03:51;14.87;;;10.57;;
65172;SDS011;69059;52.218;5.172;2023-06-22T03:06:20;13.43;;;10.32;;
65172;SDS011;69059;52.218;5.172;2023-06-22T03:08:49;12.53;;;10.33;;
65172;SDS011;69059;52.218;5.172;2023-06-22T03:11:17;13.50;;;10.57;;
65172;SDS011;69059;52.218;5.172;2023-06-22T03:13:45;12.88;;;10.23;;
65172;SDS011;69059;52.218;5.172;2023-06-22T03:16:13;15.32;;;12.25;;
65172;SDS011;69059;52.218;5.172;2023-06-22T03:18:41;14.50;;;11.43;;
65172;SDS011;69059;52.218;5.172;2023-06-22T03:21:09;13.73;;;10.63;;
65172;SDS011;69059;52.218;5.172;2023-06-22T03:23:38;12.43;;;10.98;;
65172;SDS011;69059;52.218;5.172;2023-06-22T03:26:06;15.30;;;10.77;;
65172;SDS011;69059;52.218;5.172;2023-06-22T03:28:33;15.60;;;10.63;;
65172;SDS011;69059;52.218;5.172;2023-06-22T03:31:01;12.32;;;10.15;;
65172;SDS011;69059;52.218;5.172;2023-06-22T03:33:30;13.33;;;10.20;;
65172;SDS011;69059;52.218;5.172;2023-06-22T03:35:58;13.43;;;10.85;;
65172;SDS011;69059;52.218;5.172;2023-06-22T03:38:26;14.00;;;10.88;;
65172;SDS011;69059;52.218;5.172;2023-06-22T03:40:55;16.13;;;12.20;;
65172;SDS011;69059;52.218;5.172;2023-06-22T03:43:23;13.23;;;10.57;;
65172;SDS011;69059;52.218;5.172;2023-06-22T03:45:51;12.00;;;10.52;;
65172;SDS011;69059;52.218;5.172;2023-06-22T03:48:19;13.80;;;11.23;;
65172;SDS011;69059;52.218;5.172;2023-06-22T03:50:47;14.82;;;12.20;;
65172;SDS011;69059;52.218;5.172;2023-06-22T03:53:15;15.05;;;10.55;;
65172;SDS011;69059;52.218;5.172;2023-06-22T03:55:47;15.20;;;13.05;;
65172;SDS011;69059;52.218;5.172;2023-06-22T03:58:18;15.27;;;11.90;;
65172;SDS011;69059;52.218;5.172;2023-06-22T04:00:46;17.57;;;12.77;;
65172;SDS011;69059;52.218;5.172;2023-06-22T04:03:14;15.45;;;13.40;;
65172;SDS011;69059;52.218;5.172;2023-06-22T04:05:45;14.57;;;12.57;;
65172;SDS011;69059;52.218;5.172;2023-06-22T04:08:13;17.05;;;13.75;;
65172;SDS011;69059;52.218;5.172;2023-06-22T04:13:09;17.40;;;13.30;;
65172;SDS011;69059;52.218;5.172;2023-06-22T04:15:38;15.23;;;12.68;;
65172;SDS011;69059;52.218;5.172;2023-06-22T04:18:06;16.03;;;12.90;;
65172;SDS011;69059;52.218;5.172;2023-06-22T04:20:34;15.68;;;12.85;;
65172;SDS011;69059;52.218;5.172;2023-06-22T04:23:02;19.38;;;14.70;;
65172;SDS011;69059;52.218;5.172;2023-06-22T04:25:30;14.95;;;13.18;;
65172;SDS011;69059;52.218;5.172;2023-06-22T04:27:58;18.15;;;13.57;;
65172;SDS011;69059;52.218;5.172;2023-06-22T04:30:29;16.27;;;13.93;;
65172;SDS011;69059;52.218;5.172;2023-06-22T04:35:27;17.40;;;13.13;;
65172;SDS011;69059;52.218;5.172;2023-06-22T04:40:25;20.13;;;13.73;;
65172;SDS011;69059;52.218;5.172;2023-06-22T04:42:53;19.25;;;13.43;;
65172;SDS011;69059;52.218;5.172;2023-06-22T04:45:21;26.55;;;20.17;;
65172;SDS011;69059;52.218;5.172;2023-06-22T04:47:49;15.27;;;12.90;;
65172;SDS011;69059;52.218;5.172;2023-06-22T04:50:18;17.17;;;14.18;;
65172;SDS011;69059;52.218;5.172;2023-06-22T04:52:47;17.20;;;13.83;;
65172;SDS011;69059;52.218;5.172;2023-06-22T04:55:15;15.00;;;12.70;;
65172;SDS011;69059;52.218;5.172;2023-06-22T04:57:44;21.63;;;17.03;;
65172;SDS011;69059;52.218;5.172;2023-06-22T05:00:15;17.67;;;14.20;;
65172;SDS011;69059;52.218;5.172;2023-06-22T05:02:45;18.23;;;15.50;;
65172;SDS011;69059;52.218;5.172;2023-06-22T05:05:14;16.97;;;15.17;;
65172;SDS011;69059;52.218;5.172;2023-06-22T05:07:45;18.90;;;15.40;;
65172;SDS011;69059;52.218;5.172;2023-06-22T05:10:16;25.08;;;20.33;;
65172;SDS011;69059;52.218;5.172;2023-06-22T05:12:45;23.85;;;18.73;;
65172;SDS011;69059;52.218;5.172;2023-06-22T05:15:13;21.00;;;15.07;;
65172;SDS011;69059;52.218;5.172;2023-06-22T05:17:41;17.60;;;13.77;;
65172;SDS011;69059;52.218;5.172;2023-06-22T05:20:12;22.20;;;15.45;;
65172;SDS011;69059;52.218;5.172;2023-06-22T05:22:40;18.52;;;14.70;;
65172;SDS011;69059;52.218;5.172;2023-06-22T05:25:10;20.33;;;16.85;;
65172;SDS011;69059;52.218;5.172;2023-06-22T05:27:39;34.92;;;26.73;;
65172;SDS011;69059;52.218;5.172;2023-06-22T05:30:07;24.20;;;20.38;;
65172;SDS011;69059;52.218;5.172;2023-06-22T05:32:37;21.25;;;17.70;;
65172;SDS011;69059;52.218;5.172;2023-06-22T05:35:05;28.95;;;23.85;;
65172;SDS011;69059;52.218;5.172;2023-06-22T05:37:33;26.95;;;20.52;;
65172;SDS011;69059;52.218;5.172;2023-06-22T05:40:01;24.38;;;18.58;;
65172;SDS011;69059;52.218;5.172;2023-06-22T05:42:30;36.78;;;28.25;;
65172;SDS011;69059;52.218;5.172;2023-06-22T05:44:58;30.10;;;24.48;;
65172;SDS011;69059;52.218;5.172;2023-06-22T05:47:26;35.00;;;28.08;;
65172;SDS011;69059;52.218;5.172;2023-06-22T05:49:53;28.02;;;22.50;;
65172;SDS011;69059;52.218;5.172;2023-06-22T05:52:21;34.60;;;27.83;;
65172;SDS011;69059;52.218;5.172;2023-06-22T05:54:49;35.83;;;29.58;;
65172;SDS011;69059;52.218;5.172;2023-06-22T05:57:17;37.50;;;30.10;;
65172;SDS011;69059;52.218;5.172;2023-06-22T05:59:46;41.67;;;32.20;;
65172;SDS011;69059;52.218;5.172;2023-06-22T06:02:14;36.20;;;29.83;;
65172;SDS011;69059;52.218;5.172;2023-06-22T06:04:42;35.78;;;28.10;;
65172;SDS011;69059;52.218;5.172;2023-06-22T06:07:09;39.78;;;32.15;;
65172;SDS011;69059;52.218;5.172;2023-06-22T06:09:37;34.50;;;28.20;;
65172;SDS011;69059;52.218;5.172;2023-06-22T06:12:05;37.08;;;29.27;;
65172;SDS011;69059;52.218;5.172;2023-06-22T06:14:34;34.17;;;28.80;;
65172;SDS011;69059;52.218;5.172;2023-06-22T06:17:03;36.53;;;29.30;;
65172;SDS011;69059;52.218;5.172;2023-06-22T06:19:31;36.20;;;29.83;;
65172;SDS011;69059;52.218;5.172;2023-06-22T06:21:58;37.15;;;29.90;;
65172;SDS011;69059;52.218;5.172;2023-06-22T06:24:26;36.38;;;30.20;;
65172;SDS011;69059;52.218;5.172;2023-06-22T06:26:54;36.33;;;29.48;;
65172;SDS011;69059;52.218;5.172;2023-06-22T06:29:23;31.50;;;27.83;;
65172;SDS011;69059;52.218;5.172;2023-06-22T06:31:51;28.85;;;24.85;;
65172;SDS011;69059;52.218;5.172;2023-06-22T06:34:21;31.42;;;26.08;;
65172;SDS011;69059;52.218;5.172;2023-06-22T06:36:49;29.35;;;25.85;;
65172;SDS011;69059;52.218;5.172;2023-06-22T06:39:19;29.63;;;24.63;;
65172;SDS011;69059;52.218;5.172;2023-06-22T06:41:46;33.85;;;26.85;;
65172;SDS011;69059;52.218;5.172;2023-06-22T06:44:14;28.00;;;24.85;;
65172;SDS011;69059;52.218;5.172;2023-06-22T06:46:42;28.77;;;25.63;;
65172;SDS011;69059;52.218;5.172;2023-06-22T06:49:10;29.10;;;24.60;;
65172;SDS011;69059;52.218;5.172;2023-06-22T06:51:41;29.30;;;25.42;;
65172;SDS011;69059;52.218;5.172;2023-06-22T06:54:08;31.60;;;25.33;;
65172;SDS011;69059;52.218;5.172;2023-06-22T06:56:36;25.85;;;23.23;;
65172;SDS011;69059;52.218;5.172;2023-06-22T06:59:04;29.33;;;23.85;;
65172;SDS011;69059;52.218;5.172;2023-06-22T07:01:32;27.60;;;23.30;;
65172;SDS011;69059;52.218;5.172;2023-06-22T07:04:02;26.80;;;22.58;;
65172;SDS011;69059;52.218;5.172;2023-06-22T07:06:30;24.75;;;19.95;;
65172;SDS011;69059;52.218;5.172;2023-06-22T07:09:01;25.95;;;22.30;;
65172;SDS011;69059;52.218;5.172;2023-06-22T07:11:29;25.05;;;22.17;;
65172;SDS011;69059;52.218;5.172;2023-06-22T07:13:57;21.45;;;19.27;;
65172;SDS011;69059;52.218;5.172;2023-06-22T07:16:26;24.38;;;19.42;;
65172;SDS011;69059;52.218;5.172;2023-06-22T07:18:56;23.48;;;19.58;;
65172;SDS011;69059;52.218;5.172;2023-06-22T07:21:24;23.55;;;20.80;;
65172;SDS011;69059;52.218;5.172;2023-06-22T07:23:51;22.35;;;19.95;;
65172;SDS011;69059;52.218;5.172;2023-06-22T07:26:21;22.48;;;19.13;;
65172;SDS011;69059;52.218;5.172;2023-06-22T07:28:49;22.33;;;19.75;;
65172;SDS011;69059;52.218;5.172;2023-06-22T07:31:17;22.70;;;20.27;;
65172;SDS011;69059;52.218;5.172;2023-06-22T07:33:45;22.98;;;20.48;;
65172;SDS011;69059;52.218;5.172;2023-06-22T07:36:12;23.85;;;19.65;;
65172;SDS011;69059;52.218;5.172;2023-06-22T07:38:40;23.80;;;21.27;;
65172;SDS011;69059;52.218;5.172;2023-06-22T07:41:08;23.77;;;18.77;;
65172;SDS011;69059;52.218;5.172;2023-06-22T07:43:37;21.67;;;18.65;;
65172;SDS011;69059;52.218;5.172;2023-06-22T07:46:05;24.95;;;19.33;;
65172;SDS011;69059;52.218;5.172;2023-06-22T07:48:33;24.13;;;18.60;;
65172;SDS011;69059;52.218;5.172;2023-06-22T07:51:04;22.60;;;19.23;;
65172;SDS011;69059;52.218;5.172;2023-06-22T07:53:33;22.80;;;19.38;;
65172;SDS011;69059;52.218;5.172;2023-06-22T07:56:02;25.10;;;20.00;;
65172;SDS011;69059;52.218;5.172;2023-06-22T07:58:33;20.83;;;18.60;;
65172;SDS011;69059;52.218;5.172;2023-06-22T08:01:02;19.48;;;16.15;;
65172;SDS011;69059;52.218;5.172;2023-06-22T08:03:30;21.05;;;17.15;;
65172;SDS011;69059;52.218;5.172;2023-06-22T08:05:58;21.25;;;18.50;;
65172;SDS011;69059;52.218;5.172;2023-06-22T08:08:26;18.98;;;16.80;;
65172;SDS011;69059;52.218;5.172;2023-06-22T08:10:54;21.55;;;17.77;;
65172;SDS011;69059;52.218;5.172;2023-06-22T08:13:22;18.65;;;16.30;;
65172;SDS011;69059;52.218;5.172;2023-06-22T08:15:50;17.92;;;15.18;;
65172;SDS011;69059;52.218;5.172;2023-06-22T08:18:20;16.70;;;15.00;;
65172;SDS011;69059;52.218;5.172;2023-06-22T08:20:48;15.68;;;13.80;;
65172;SDS011;69059;52.218;5.172;2023-06-22T08:23:16;16.42;;;14.32;;
65172;SDS011;69059;52.218;5.172;2023-06-22T08:28:11;16.55;;;14.05;;
65172;SDS011;69059;52.218;5.172;2023-06-22T08:30:40;17.83;;;15.02;;
65172;SDS011;69059;52.218;5.172;2023-06-22T08:33:08;15.65;;;12.90;;
65172;SDS011;69059;52.218;5.172;2023-06-22T08:35:41;13.77;;;12.38;;
65172;SDS011;69059;52.218;5.172;2023-06-22T08:38:10;14.23;;;12.73;;
65172;SDS011;69059;52.218;5.172;2023-06-22T08:40:41;15.45;;;13.45;;
65172;SDS011;69059;52.218;5.172;2023-06-22T08:43:09;16.63;;;13.27;;
65172;SDS011;69059;52.218;5.172;2023-06-22T08:48:06;13.68;;;11.32;;
65172;SDS011;69059;52.218;5.172;2023-06-22T08:50:34;13.07;;;11.68;;
65172;SDS011;69059;52.218;5.172;2023-06-22T08:53:03;12.15;;;10.85;;
65172;SDS011;69059;52.218;5.172;2023-06-22T08:55:30;12.23;;;10.98;;
65172;SDS011;69059;52.218;5.172;2023-06-22T09:00:26;13.68;;;10.57;;
65172;SDS011;69059;52.218;5.172;2023-06-22T09:02:55;13.63;;;10.82;;
65172;SDS011;69059;52.218;5.172;2023-06-22T09:05:25;12.70;;;11.38;;
65172;SDS011;69059;52.218;5.172;2023-06-22T09:07:53;12.02;;;10.80;;
65172;SDS011;69059;52.218;5.172;2023-06-22T09:10:26;12.32;;;8.57;;
65172;SDS011;69059;52.218;5.172;2023-06-22T09:12:54;12.18;;;10.35;;
65172;SDS011;69059;52.218;5.172;2023-06-22T09:15:22;9.18;;;8.25;;
65172;SDS011;69059;52.218;5.172;2023-06-22T09:17:50;11.07;;;9.65;;
65172;SDS011;69059;52.218;5.172;2023-06-22T09:20:20;10.85;;;8.32;;
65172;SDS011;69059;52.218;5.172;2023-06-22T09:22:48;9.18;;;7.22;;
65172;SDS011;69059;52.218;5.172;2023-06-22T09:25:16;8.70;;;7.25;;
65172;SDS011;69059;52.218;5.172;2023-06-22T09:27:48;10.63;;;8.80;;
65172;SDS011;69059;52.218;5.172;2023-06-22T09:30:15;7.72;;;6.70;;
65172;SDS011;69059;52.218;5.172;2023-06-22T09:32:43;8.10;;;6.05;;
65172;SDS011;69059;52.218;5.172;2023-06-22T09:35:11;6.88;;;6.00;;
65172;SDS011;69059;52.218;5.172;2023-06-22T09:37:40;9.25;;;6.07;;
65172;SDS011;69059;52.218;5.172;2023-06-22T09:42:37;7.93;;;5.85;;
65172;SDS011;69059;52.218;5.172;2023-06-22T09:45:07;7.85;;;6.43;;
65172;SDS011;69059;52.218;5.172;2023-06-22T09:47:36;8.93;;;6.82;;
65172;SDS011;69059;52.218;5.172;2023-06-22T09:55:13;8.15;;;5.43;;
65172;SDS011;69059;52.218;5.172;2023-06-22T09:57:43;6.63;;;5.93;;
65172;SDS011;69059;52.218;5.172;2023-06-22T10:00:13;6.03;;;4.88;;
65172;SDS011;69059;52.218;5.172;2023-06-22T10:02:42;7.68;;;4.95;;
65172;SDS011;69059;52.218;5.172;2023-06-22T10:05:11;8.02;;;5.97;;
65172;SDS011;69059;52.218;5.172;2023-06-22T10:07:39;8.18;;;6.00;;
65172;SDS011;69059;52.218;5.172;2023-06-22T10:10:10;6.90;;;5.57;;
65172;SDS011;69059;52.218;5.172;2023-06-22T10:12:40;6.47;;;5.45;;
65172;SDS011;69059;52.218;5.172;2023-06-22T10:15:10;6.70;;;5.65;;
65172;SDS011;69059;52.218;5.172;2023-06-22T10:17:40;8.18;;;5.07;;
65172;SDS011;69059;52.218;5.172;2023-06-22T10:20:08;9.82;;;5.00;;
65172;SDS011;69059;52.218;5.172;2023-06-22T10:22:39;8.88;;;6.28;;
65172;SDS011;69059;52.218;5.172;2023-06-22T10:25:07;7.57;;;6.13;;
65172;SDS011;69059;52.218;5.172;2023-06-22T10:27:36;6.57;;;4.88;;
65172;SDS011;69059;52.218;5.172;2023-06-22T10:30:06;8.98;;;6.35;;
65172;SDS011;69059;52.218;5.172;2023-06-22T10:32:35;9.88;;;6.40;;
65172;SDS011;69059;52.218;5.172;2023-06-22T10:35:05;8.13;;;6.88;;
65172;SDS011;69059;52.218;5.172;2023-06-22T10:37:33;9.73;;;7.07;;
65172;SDS011;69059;52.218;5.172;2023-06-22T10:40:01;11.98;;;6.85;;
65172;SDS011;69059;52.218;5.172;2023-06-22T10:42:30;7.30;;;5.07;;
65172;SDS011;69059;52.218;5.172;2023-06-22T10:44:58;6.43;;;5.20;;
65172;SDS011;69059;52.218;5.172;2023-06-22T10:47:25;8.00;;;5.30;;
65172;SDS011;69059;52.218;5.172;2023-06-22T10:49:53;10.55;;;5.97;;
65172;SDS011;69059;52.218;5.172;2023-06-22T10:52:22;7.53;;;6.53;;
65172;SDS011;69059;52.218;5.172;2023-06-22T10:54:50;6.70;;;5.68;;
65172;SDS011;69059;52.218;5.172;2023-06-22T10:59:46;6.72;;;5.57;;
65172;SDS011;69059;52.218;5.172;2023-06-22T11:02:14;7.95;;;6.03;;
65172;SDS011;69059;52.218;5.172;2023-06-22T11:04:42;6.93;;;5.32;;
65172;SDS011;69059;52.218;5.172;2023-06-22T11:07:10;9.77;;;5.45;;
65172;SDS011;69059;52.218;5.172;2023-06-22T11:09:39;8.27;;;5.88;;
65172;SDS011;69059;52.218;5.172;2023-06-22T11:12:07;6.25;;;5.45;;
65172;SDS011;69059;52.218;5.172;2023-06-22T11:14:34;8.25;;;5.22;;
65172;SDS011;69059;52.218;5.172;2023-06-22T11:17:02;7.93;;;5.07;;
65172;SDS011;69059;52.218;5.172;2023-06-22T11:19:30;6.15;;;5.28;;
65172;SDS011;69059;52.218;5.172;2023-06-22T11:21:58;7.18;;;5.45;;
65172;SDS011;69059;52.218;5.172;2023-06-22T11:24:26;8.50;;;6.07;;
65172;SDS011;69059;52.218;5.172;2023-06-22T11:26:55;9.65;;;5.57;;
65172;SDS011;69059;52.218;5.172;2023-06-22T11:29:25;7.80;;;6.18;;
65172;SDS011;69059;52.218;5.172;2023-06-22T11:34:31;11.52;;;6.22;;
65172;SDS011;69059;52.218;5.172;2023-06-22T11:36:59;5.28;;;4.53;;
65172;SDS011;69059;52.218;5.172;2023-06-22T11:39:27;8.45;;;5.88;;
65172;SDS011;69059;52.218;5.172;2023-06-22T11:42:09;8.30;;;6.05;;
65172;SDS011;69059;52.218;5.172;2023-06-22T11:44:37;10.25;;;5.65;;
65172;SDS011;69059;52.218;5.172;2023-06-22T11:47:05;9.90;;;5.80;;
65172;SDS011;69059;52.218;5.172;2023-06-22T11:49:33;7.05;;;5.50;;
65172;SDS011;69059;52.218;5.172;2023-06-22T11:52:01;8.10;;;6.13;;
65172;SDS011;69059;52.218;5.172;2023-06-22T11:54:29;8.30;;;6.95;;
65172;SDS011;69059;52.218;5.172;2023-06-22T11:56:57;10.45;;;7.15;;
65172;SDS011;69059;52.218;5.172;2023-06-22T11:59:26;7.07;;;6.38;;
65172;SDS011;69059;52.218;5.172;2023-06-22T12:01:54;10.57;;;7.47;;
65172;SDS011;69059;52.218;5.172;2023-06-22T12:04:21;12.02;;;6.75;;
65172;SDS011;69059;52.218;5.172;2023-06-22T12:06:49;8.95;;;6.88;;
65172;SDS011;69059;52.218;5.172;2023-06-22T12:09:17;11.35;;;8.43;;
65172;SDS011;69059;52.218;5.172;2023-06-22T12:11:45;9.85;;;8.35;;
65172;SDS011;69059;52.218;5.172;2023-06-22T12:14:12;8.98;;;7.50;;
65172;SDS011;69059;52.218;5.172;2023-06-22T12:16:42;11.07;;;8.13;;
65172;SDS011;69059;52.218;5.172;2023-06-22T12:19:10;9.88;;;7.95;;
65172;SDS011;69059;52.218;5.172;2023-06-22T12:21:38;10.30;;;8.95;;
65172;SDS011;69059;52.218;5.172;2023-06-22T12:24:07;8.60;;;7.80;;
65172;SDS011;69059;52.218;5.172;2023-06-22T12:26:35;10.73;;;9.13;;
65172;SDS011;69059;52.218;5.172;2023-06-22T12:29:02;11.18;;;10.00;;
65172;SDS011;69059;52.218;5.172;2023-06-22T12:31:30;9.98;;;8.63;;
65172;SDS011;69059;52.218;5.172;2023-06-22T12:33:59;11.48;;;9.93;;
65172;SDS011;69059;52.218;5.172;2023-06-22T12:36:27;12.02;;;7.90;;
65172;SDS011;69059;52.218;5.172;2023-06-22T12:38:55;11.98;;;9.75;;
65172;SDS011;69059;52.218;5.172;2023-06-22T12:41:23;14.32;;;10.07;;
65172;SDS011;69059;52.218;5.172;2023-06-22T12:43:51;10.35;;;8.57;;
65172;SDS011;69059;52.218;5.172;2023-06-22T12:46:19;12.82;;;10.95;;
65172;SDS011;69059;52.218;5.172;2023-06-22T12:48:46;11.35;;;10.18;;
65172;SDS011;69059;52.218;5.172;2023-06-22T12:51:21;13.88;;;9.75;;
65172;SDS011;69059;52.218;5.172;2023-06-22T12:53:49;11.50;;;10.00;;
65172;SDS011;69059;52.218;5.172;2023-06-22T12:56:17;12.20;;;7.97;;
65172;SDS011;69059;52.218;5.172;2023-06-22T12:58:45;10.05;;;8.93;;
65172;SDS011;69059;52.218;5.172;2023-06-22T13:01:13;9.65;;;8.63;;
65172;SDS011;69059;52.218;5.172;2023-06-22T13:03:41;9.68;;;8.52;;
65172;SDS011;69059;52.218;5.172;2023-06-22T13:08:38;8.40;;;6.95;;
65172;SDS011;69059;52.218;5.172;2023-06-22T13:11:08;7.75;;;5.70;;
65172;SDS011;69059;52.218;5.172;2023-06-22T13:13:36;12.60;;;6.03;;
65172;SDS011;69059;52.218;5.172;2023-06-22T13:16:04;7.13;;;5.60;;
65172;SDS011;69059;52.218;5.172;2023-06-22T13:18:32;8.95;;;6.72;;
65172;SDS011;69059;52.218;5.172;2023-06-22T13:21:02;8.32;;;6.32;;
65172;SDS011;69059;52.218;5.172;2023-06-22T13:23:30;8.25;;;7.13;;
65172;SDS011;69059;52.218;5.172;2023-06-22T13:25:59;10.57;;;7.65;;
65172;SDS011;69059;52.218;5.172;2023-06-22T13:28:27;10.88;;;6.95;;
65172;SDS011;69059;52.218;5.172;2023-06-22T13:30:56;10.13;;;6.50;;
65172;SDS011;69059;52.218;5.172;2023-06-22T13:33:24;9.75;;;7.88;;
65172;SDS011;69059;52.218;5.172;2023-06-22T13:35:52;10.70;;;8.18;;
65172;SDS011;69059;52.218;5.172;2023-06-22T13:38:20;12.20;;;7.97;;
65172;SDS011;69059;52.218;5.172;2023-06-22T13:40:48;8.30;;;6.80;;
65172;SDS011;69059;52.218;5.172;2023-06-22T13:43:18;9.75;;;6.80;;
65172;SDS011;69059;52.218;5.172;2023-06-22T13:45:45;11.10;;;8.57;;
65172;SDS011;69059;52.218;5.172;2023-06-22T13:48:13;11.00;;;8.52;;
65172;SDS011;69059;52.218;5.172;2023-06-22T13:50:41;11.35;;;8.57;;
65172;SDS011;69059;52.218;5.172;2023-06-22T13:53:10;9.77;;;7.18;;
65172;SDS011;69059;52.218;5.172;2023-06-22T13:55:38;11.65;;;8.02;;
65172;SDS011;69059;52.218;5.172;2023-06-22T13:58:06;10.40;;;7.22;;
65172;SDS011;69059;52.218;5.172;2023-06-22T14:00:36;9.60;;;7.97;;
65172;SDS011;69059;52.218;5.172;2023-06-22T14:03:04;10.45;;;8.80;;
65172;SDS011;69059;52.218;5.172;2023-06-22T14:05:32;9.65;;;8.15;;
65172;SDS011;69059;52.218;5.172;2023-06-22T14:08:00;8.77;;;7.63;;
65172;SDS011;69059;52.218;5.172;2023-06-22T14:10:30;10.07;;;7.63;;
65172;SDS011;69059;52.218;5.172;2023-06-22T14:12:58;10.02;;;8.85;;
65172;SDS011;69059;52.218;5.172;2023-06-22T14:15:27;13.23;;;10.43;;
65172;SDS011;69059;52.218;5.172;2023-06-22T14:17:56;11.90;;;9.48;;
65172;SDS011;69059;52.218;5.172;2023-06-22T14:20:24;12.35;;;9.82;;
65172;SDS011;69059;52.218;5.172;2023-06-22T14:22:52;12.70;;;11.40;;
65172;SDS011;69059;52.218;5.172;2023-06-22T14:25:20;9.35;;;7.60;;
65172;SDS011;69059;52.218;5.172;2023-06-22T14:27:47;14.63;;;10.38;;
65172;SDS011;69059;52.218;5.172;2023-06-22T14:30:15;14.55;;;11.00;;
65172;SDS011;69059;52.218;5.172;2023-06-22T14:32:43;11.48;;;9.27;;
65172;SDS011;69059;52.218;5.172;2023-06-22T14:35:13;15.13;;;11.80;;
65172;SDS011;69059;52.218;5.172;2023-06-22T14:37:41;12.00;;;8.75;;
65172;SDS011;69059;52.218;5.172;2023-06-22T14:40:09;15.68;;;8.50;;
65172;SDS011;69059;52.218;5.172;2023-06-22T14:42:38;13.32;;;11.40;;
65172;SDS011;69059;52.218;5.172;2023-06-22T14:45:06;12.48;;;10.40;;
65172;SDS011;69059;52.218;5.172;2023-06-22T14:47:34;15.55;;;13.63;;
65172;SDS011;69059;52.218;5.172;2023-06-22T14:50:02;12.73;;;11.38;;
65172;SDS011;69059;52.218;5.172;2023-06-22T14:55:00;12.35;;;11.02;;
65172;SDS011;69059;52.218;5.172;2023-06-22T14:57:27;14.90;;;12.73;;
65172;SDS011;69059;52.218;5.172;2023-06-22T14:59:55;14.00;;;12.55;;
65172;SDS011;69059;52.218;5.172;2023-06-22T15:02:23;17.20;;;12.95;;
65172;SDS011;69059;52.218;5.172;2023-06-22T15:04:51;15.73;;;12.43;;
65172;SDS011;69059;52.218;5.172;2023-06-22T15:07:20;14.15;;;11.88;;
65172;SDS011;69059;52.218;5.172;2023-06-22T15:09:49;15.48;;;13.02;;
65172;SDS011;69059;52.218;5.172;2023-06-22T15:12:17;16.70;;;11.48;;
65172;SDS011;69059;52.218;5.172;2023-06-22T15:14:45;19.42;;;11.85;;
65172;SDS011;69059;52.218;5.172;2023-06-22T15:17:12;13.68;;;12.25;;
65172;SDS011;69059;52.218;5.172;2023-06-22T15:19:41;11.63;;;10.43;;
65172;SDS011;69059;52.218;5.172;2023-06-22T15:22:09;14.52;;;11.00;;